Time;durP1;ratioP1;P1;durP2;ratioP2;P2;SDS_P1;SDS_P2;PMS_P1;PMS_P2;Temp;Humidity;BMP_temperature;BMP_pressure;BME280_temperature;BME280_humidity;BME280_pressure;Samples;Min_cycle;Max_cycle;Signal;HPM_P1;HPM_P2
2022/04/11 00:01:04;;;;;;;1.55;1.08;;;;;;;6.95;100.00;96210.19;5023272;28;20049;-69
2022/04/11 00:03:31;;;;;;;2.00;1.13;;;;;;;6.81;98.46;96220.94;5023352;28;20064;-59
2022/04/11 00:05:58;;;;;;;1.35;1.00;;;;;;;6.34;100.00;96239.69;5023468;28;20110;-59
2022/04/11 00:08:24;;;;;;;1.48;0.63;;;;;;;6.02;94.85;96246.50;5022469;28;20057;-70
2022/04/11 00:10:51;;;;;;;0.60;0.60;;;;;;;5.65;90.65;96256.22;5023116;28;20057;-69
2022/04/11 00:13:17;;;;;;;1.85;0.85;;;;;;;5.53;90.59;96261.84;5023758;28;20519;-69
2022/04/11 00:15:44;;;;;;;1.10;0.70;;;;;;;5.43;90.51;96270.59;5023261;28;20069;-69
2022/04/11 00:18:11;;;;;;;1.05;0.57;;;;;;;5.22;90.05;96278.31;5023521;28;20057;-59
2022/04/11 00:20:38;;;;;;;0.80;0.80;;;;;;;5.16;90.15;96293.47;5023244;28;20448;-59
2022/04/11 00:23:05;;;;;;;1.17;0.80;;;;;;;5.14;92.43;96301.28;5023177;28;20264;-69
2022/04/11 00:25:34;;;;;;;1.30;0.75;;;;;;;4.00;91.98;96197.91;5022019;28;20504;-70
2022/04/11 00:28:00;;;;;;;1.85;0.50;;;;;;;4.94;90.28;96296.81;5023491;28;20046;-60
2022/04/11 00:30:27;;;;;;;0.52;0.52;;;;;;;5.06;92.24;96326.94;5023131;28;20058;-69
2022/04/11 00:32:54;;;;;;;0.50;0.50;;;;;;;4.72;93.00;96283.69;5018319;28;20501;-69
2022/04/11 00:35:21;;;;;;;0.40;0.40;;;;;;;4.89;89.73;96332.72;5003589;28;20050;-57
2022/04/11 00:37:48;;;;;;;0.43;0.43;;;;;;;4.98;89.83;96358.09;5004399;28;20069;-58
2022/04/11 00:40:15;;;;;;;0.80;0.60;;;;;;;5.01;89.53;96360.13;5003895;28;20424;-69
2022/04/11 00:42:41;;;;;;;0.50;0.50;;;;;;;5.09;87.95;96359.16;5003736;28;20060;-69
2022/04/11 00:45:08;;;;;;;0.40;0.40;;;;;;;5.09;88.76;96372.88;5003297;28;20080;-68
2022/04/11 00:47:35;;;;;;;0.50;0.50;;;;;;;4.50;88.82;96283.09;5003886;28;20064;-70
2022/04/11 00:50:07;;;;;;;0.55;0.55;;;;;;;5.16;87.63;96381.28;5003335;28;20060;-69
2022/04/11 00:52:37;;;;;;;0.50;0.50;;;;;;;5.27;88.67;96387.88;5002130;28;20057;-58
2022/04/11 00:55:07;;;;;;;0.50;0.50;;;;;;;5.30;87.21;96377.00;5006946;28;20053;-69
2022/04/11 00:57:34;;;;;;;0.50;0.50;;;;;;;5.37;87.52;96373.63;5004752;28;20088;-69
2022/04/11 01:00:05;;;;;;;0.47;0.47;;;;;;;5.40;85.80;96370.97;5007042;28;20053;-68
2022/04/11 01:02:31;;;;;;;0.50;0.50;;;;;;;5.40;84.88;96381.16;5006880;28;20058;-69
2022/04/11 01:04:58;;;;;;;0.50;0.50;;;;;;;5.48;84.84;96380.19;5006265;28;20088;-61
2022/04/11 01:07:25;;;;;;;0.50;0.50;;;;;;;5.47;84.33;96360.16;5005202;28;20115;-69
2022/04/11 01:09:53;;;;;;;1.65;0.52;;;;;;;5.45;81.74;96389.16;5006467;28;20057;-69
2022/04/11 01:12:22;;;;;;;8.60;1.48;;;;;;;5.37;83.64;96387.34;5004926;28;20054;-58
2022/04/11 01:14:48;;;;;;;4.38;1.30;;;;;;;5.43;84.22;96403.22;5005186;28;20337;-69
2022/04/11 01:17:15;;;;;;;2.45;0.95;;;;;;;5.28;81.67;96394.97;5006865;28;20068;-56
2022/04/11 01:19:41;;;;;;;5.53;1.50;;;;;;;5.46;84.71;96396.22;5005527;28;20064;-57
2022/04/11 01:22:08;;;;;;;1.95;1.17;;;;;;;5.62;82.42;96388.78;5006671;28;20062;-58
2022/04/11 01:24:36;;;;;;;2.08;1.20;;;;;;;5.73;83.95;96384.34;5006378;28;20058;-68
2022/04/11 01:27:03;;;;;;;1.67;0.80;;;;;;;5.01;79.75;96305.25;5006553;28;20050;-70
2022/04/11 01:29:29;;;;;;;0.60;0.60;;;;;;;5.44;81.52;96395.75;5006079;28;20062;-60
2022/04/11 01:31:56;;;;;;;0.60;0.60;;;;;;;5.59;81.94;96376.56;5004592;28;20046;-58
2022/04/11 01:34:23;;;;;;;0.50;0.50;;;;;;;5.62;79.30;96384.09;5006060;28;20461;-69
2022/04/11 01:36:49;;;;;;;0.98;0.60;;;;;;;5.67;82.19;96403.06;5005097;28;20061;-57
2022/04/11 01:39:16;;;;;;;0.60;0.60;;;;;;;5.82;82.83;96406.97;5006604;28;20061;-69
2022/04/11 01:41:43;;;;;;;0.60;0.60;;;;;;;5.31;78.09;96339.34;5005862;28;20089;-57
2022/04/11 01:44:09;;;;;;;0.60;0.60;;;;;;;5.72;79.21;96400.03;5004375;28;20548;-70
2022/04/11 01:46:36;;;;;;;0.60;0.60;;;;;;;5.15;78.29;96341.28;5005987;28;20437;-61
2022/04/11 01:49:03;;;;;;;2.40;0.60;;;;;;;5.59;79.37;96409.53;5006107;28;20053;-70
2022/04/11 01:51:29;;;;;;;0.70;0.70;;;;;;;5.29;79.57;96347.13;5005662;28;20049;-69
2022/04/11 01:53:56;;;;;;;0.80;0.65;;;;;;;4.84;79.59;96308.31;5004519;28;20049;-70
2022/04/11 01:56:23;;;;;;;1.13;0.85;;;;;;;5.32;79.10;96486.47;5005759;28;20053;-57
2022/04/11 01:58:49;;;;;;;0.60;0.60;;;;;;;5.19;78.82;96406.09;5004511;28;20420;-70
2022/04/11 02:01:18;;;;;;;0.60;0.60;;;;;;;5.19;81.29;96370.41;5005713;28;20456;-57
2022/04/11 02:03:45;;;;;;;1.38;0.60;;;;;;;5.29;80.78;96424.00;5005524;28;20501;-57
2022/04/11 02:06:12;;;;;;;4.10;0.90;;;;;;;5.19;80.46;96397.06;5004907;28;20053;-69
2022/04/11 02:08:38;;;;;;;2.97;1.42;;;;;;;5.28;79.57;96423.22;5005520;28;20471;-59
2022/04/11 02:11:05;;;;;;;0.50;0.50;;;;;;;4.45;79.40;96318.19;5003986;28;20076;-57
2022/04/11 02:13:32;;;;;;;1.95;0.90;;;;;;;4.46;81.91;96320.59;5005720;28;20057;-69
2022/04/11 02:16:00;;;;;;;1.90;1.02;;;;;;;4.78;83.35;96381.03;5005027;28;20053;-68
2022/04/11 02:18:27;;;;;;;0.98;0.93;;;;;;;5.21;83.74;96427.72;5005545;28;20056;-58
2022/04/11 02:20:53;;;;;;;3.42;0.95;;;;;;;5.18;82.48;96431.16;5004390;28;20073;-69
2022/04/11 02:23:21;;;;;;;5.80;1.15;;;;;;;4.93;84.08;96430.50;5005487;28;20054;-56
2022/04/11 02:25:47;;;;;;;2.67;0.90;;;;;;;5.02;81.83;96446.78;5004922;28;20550;-69
2022/04/11 02:28:14;;;;;;;3.25;1.27;;;;;;;4.90;83.91;96457.81;5004032;28;20480;-68
2022/04/11 02:30:41;;;;;;;1.10;0.85;;;;;;;4.45;84.83;96351.91;5005486;28;20064;-58
2022/04/11 02:33:08;;;;;;;1.75;1.10;;;;;;;4.81;85.84;96385.81;5016520;28;20053;-67
2022/04/11 02:35:34;;;;;;;3.58;1.45;;;;;;;5.19;84.26;96463.75;5023738;28;20056;-57
2022/04/11 02:38:01;;;;;;;1.33;0.98;;;;;;;5.38;84.96;96476.81;5025079;28;20045;-69
2022/04/11 02:40:28;;;;;;;7.70;2.03;;;;;;;5.10;85.23;96413.72;5025147;28;20057;-69
2022/04/11 02:42:54;;;;;;;4.43;1.40;;;;;;;5.41;82.78;96470.63;5024718;28;20065;-57
2022/04/11 02:45:21;;;;;;;1.67;1.10;;;;;;;5.28;82.54;96482.84;5022805;28;20061;-69
2022/04/11 02:47:49;;;;;;;2.13;1.27;;;;;;;5.14;83.22;96482.44;5023326;28;20057;-60
2022/04/11 02:50:16;;;;;;;1.27;0.98;;;;;;;5.16;82.71;96477.38;5024455;28;20057;-58
2022/04/11 02:52:42;;;;;;;3.00;1.25;;;;;;;5.05;83.90;96479.81;5024079;28;20060;-69
2022/04/11 02:55:09;;;;;;;0.98;0.90;;;;;;;5.14;82.77;96488.69;5024481;28;20056;-69
2022/04/11 02:57:39;;;;;;;2.28;1.10;;;;;;;4.48;82.88;96383.31;5024698;28;20056;-58
2022/04/11 03:00:12;;;;;;;1.40;0.98;;;;;;;5.38;83.32;96509.78;5024298;28;20080;-57
2022/04/11 03:02:39;;;;;;;3.03;0.90;;;;;;;5.19;81.84;96468.44;5024753;28;20447;-69
2022/04/11 03:05:06;;;;;;;0.90;0.80;;;;;;;5.49;82.65;96508.94;5024157;28;20056;-69
2022/04/11 03:07:33;;;;;;;4.80;1.98;;;;;;;5.62;83.07;96487.69;5024176;28;20519;-70
2022/04/11 03:10:00;;;;;;;4.93;2.22;;;;;;;5.86;85.44;96532.31;5024053;28;20539;-70
2022/04/11 03:12:27;;;;;;;4.32;1.30;;;;;;;5.71;80.49;96529.53;5022768;28;20428;-70
2022/04/11 03:14:54;;;;;;;2.53;1.10;;;;;;;5.42;79.50;96488.72;5023976;28;20049;-58
2022/04/11 03:17:20;;;;;;;0.80;0.80;;;;;;;5.84;79.54;96534.66;5024181;28;20100;-69
2022/04/11 03:19:47;;;;;;;4.32;0.90;;;;;;;5.75;79.14;96533.97;5022667;28;20045;-58
2022/04/11 03:22:14;;;;;;;0.85;0.80;;;;;;;5.55;81.79;96525.94;5024399;28;20497;-67
2022/04/11 03:24:40;;;;;;;0.88;0.70;;;;;;;5.49;81.98;96543.81;5023283;28;20084;-69
2022/04/11 03:27:07;;;;;;;3.13;0.73;;;;;;;5.24;79.40;96536.81;5024332;28;20046;-68
2022/04/11 03:29:34;;;;;;;0.70;0.70;;;;;;;5.24;78.92;96531.34;5022833;28;20539;-58
2022/04/11 03:32:00;;;;;;;0.60;0.60;;;;;;;5.17;79.40;96525.66;5023821;28;20068;-60
2022/04/11 03:34:27;;;;;;;0.60;0.60;;;;;;;5.24;78.97;96550.56;5024079;28;20496;-70
2022/04/11 03:36:54;;;;;;;0.60;0.60;;;;;;;5.12;79.10;96534.13;5023766;28;20054;-69
2022/04/11 03:39:20;;;;;;;0.60;0.60;;;;;;;5.23;79.64;96540.72;5022263;28;20061;-69
2022/04/11 03:41:47;;;;;;;1.33;0.70;;;;;;;5.21;80.10;96557.56;5023754;28;20049;-58
2022/04/11 03:44:14;;;;;;;0.70;0.70;;;;;;;5.17;80.31;96558.59;5024020;28;20076;-68
2022/04/11 03:46:40;;;;;;;0.93;0.93;;;;;;;5.14;78.84;96554.59;5022482;28;20049;-57
2022/04/11 03:49:07;;;;;;;0.68;0.60;;;;;;;5.19;79.71;96567.25;5024031;28;20046;-68
2022/04/11 03:51:34;;;;;;;0.68;0.68;;;;;;;4.81;79.44;96501.03;5023190;28;20053;-69
2022/04/11 03:54:01;;;;;;;0.82;0.73;;;;;;;5.31;79.53;96573.50;5022462;28;20053;-69
2022/04/11 03:56:28;;;;;;;1.08;0.80;;;;;;;4.61;76.58;96470.69;5023698;28;20088;-59
2022/04/11 03:58:54;;;;;;;0.73;0.73;;;;;;;5.25;77.25;96554.91;5023785;28;20061;-58
2022/04/11 04:01:21;;;;;;;1.23;0.90;;;;;;;5.05;76.93;96533.91;5022637;28;20045;-58
2022/04/11 04:03:48;;;;;;;1.67;1.00;;;;;;;5.31;77.25;96570.00;5023754;28;20111;-66
2022/04/11 04:06:15;;;;;;;1.10;0.80;;;;;;;4.87;79.91;96483.97;5023478;28;20049;-69
2022/04/11 04:08:41;;;;;;;1.27;1.10;;;;;;;5.52;77.76;96585.13;5023572;28;20248;-59
2022/04/11 04:11:09;;;;;;;3.65;1.20;;;;;;;5.00;76.63;96531.41;5022415;28;20527;-58
2022/04/11 04:13:36;;;;;;;1.10;0.93;;;;;;;5.32;78.85;96593.53;5021869;28;20590;-69
2022/04/11 04:16:04;;;;;;;2.38;1.55;;;;;;;5.22;77.18;96574.81;5023454;28;20519;-68
2022/04/11 04:18:31;;;;;;;3.08;1.80;;;;;;;4.78;76.85;96490.75;5023027;28;20564;-57
2022/04/11 04:20:58;;;;;;;3.75;2.22;;;;;;;5.49;77.14;96605.06;5023087;28;20527;-59
2022/04/11 04:23:26;;;;;;;4.22;2.47;;;;;;;5.48;76.31;96605.41;5021749;28;20920;-69
2022/04/11 04:25:52;;;;;;;3.65;2.35;;;;;;;5.51;76.40;96611.00;5023222;28;20615;-57
2022/04/11 04:28:19;;;;;;;7.18;3.35;;;;;;;5.19;74.12;96535.13;5024666;28;20072;-60
2022/04/11 04:30:49;;;;;;;2.88;2.00;;;;;;;4.91;74.53;96538.97;5026998;28;20485;-69
2022/04/11 04:33:16;;;;;;;5.60;2.50;;;;;;;5.63;74.44;96621.13;5013966;28;20053;-57
2022/04/11 04:35:43;;;;;;;5.53;3.03;;;;;;;5.82;75.42;96615.81;5007202;28;20054;-58
2022/04/11 04:38:09;;;;;;;5.20;2.72;;;;;;;5.73;74.01;96615.16;5007771;28;20058;-68
2022/04/11 04:40:36;;;;;;;5.00;2.08;;;;;;;5.68;73.65;96629.13;5007117;28;20053;-68
2022/04/11 04:43:04;;;;;;;3.15;2.20;;;;;;;5.81;76.94;96628.75;5007619;28;20054;-68
2022/04/11 04:45:31;;;;;;;3.72;2.55;;;;;;;4.93;74.70;96481.81;5007240;28;20061;-67
2022/04/11 04:47:58;;;;;;;3.72;2.20;;;;;;;5.75;74.44;96651.34;5007145;28;20512;-69
2022/04/11 04:50:24;;;;;;;5.60;2.33;;;;;;;5.91;72.77;96644.75;5006886;28;20078;-57
2022/04/11 04:52:51;;;;;;;6.18;2.25;;;;;;;5.86;74.08;96664.25;5010431;28;20360;-69
2022/04/11 04:55:18;;;;;;;4.20;2.30;;;;;;;5.84;74.50;96641.81;5026422;28;20053;-70
2022/04/11 04:57:45;;;;;;;2.38;1.50;;;;;;;4.86;74.02;96509.03;5025164;28;20056;-70
2022/04/11 05:00:12;;;;;;;5.10;3.10;;;;;;;5.78;74.06;96659.69;5026389;28;20049;-59
2022/04/11 05:02:39;;;;;;;3.83;2.20;;;;;;;5.99;72.09;96678.75;5026322;28;20046;-58
2022/04/11 05:05:11;;;;;;;3.63;1.98;;;;;;;5.83;72.99;96673.19;5026430;28;20063;-57
2022/04/11 05:07:38;;;;;;;2.80;1.38;;;;;;;5.80;72.61;96690.34;5026625;28;20324;-56
2022/04/11 05:10:10;;;;;;;6.88;2.67;;;;;;;5.58;71.21;96624.16;5026618;28;20049;-70
2022/04/11 05:12:38;;;;;;;2.45;2.17;;;;;;;6.09;72.33;96689.25;5026547;28;20401;-56
2022/04/11 05:15:06;;;;;;;4.38;3.03;;;;;;;6.19;71.86;96694.25;5024635;28;20512;-70
2022/04/11 05:17:32;;;;;;;8.85;4.10;;;;;;;5.84;70.91;96627.28;5026444;28;20057;-68
2022/04/11 05:19:59;;;;;;;2.83;1.80;;;;;;;6.16;71.25;96706.72;5026479;28;20053;-70
2022/04/11 05:22:25;;;;;;;4.30;2.70;;;;;;;5.71;74.46;96644.91;5026663;28;20045;-57
2022/04/11 05:24:52;;;;;;;5.75;3.10;;;;;;;6.01;74.89;96654.44;5026208;28;20064;-58
2022/04/11 05:27:19;;;;;;;2.88;1.50;;;;;;;6.13;70.79;96665.41;5026814;28;20061;-57
2022/04/11 05:29:45;;;;;;;2.22;1.95;;;;;;;6.18;70.61;96685.19;5026594;28;20056;-70
2022/04/11 05:32:12;;;;;;;2.85;1.90;;;;;;;6.27;69.15;96654.81;5023824;28;20072;-57
2022/04/11 05:34:39;;;;;;;2.92;1.80;;;;;;;6.44;68.13;96689.41;5006000;28;20061;-56
2022/04/11 05:37:06;;;;;;;5.45;2.22;;;;;;;6.69;69.63;96685.38;5006354;28;20069;-57
2022/04/11 05:39:32;;;;;;;3.35;2.38;;;;;;;6.92;68.96;96703.69;5005398;28;20054;-69
2022/04/11 05:41:59;;;;;;;4.03;2.10;;;;;;;6.88;68.17;96693.72;5005863;28;20432;-56
2022/04/11 05:44:26;;;;;;;2.30;1.73;;;;;;;2.55;66.62;95956.81;5005980;28;20065;-70
2022/04/11 05:46:55;;;;;;;2.13;1.80;;;;;;;7.64;66.03;96694.81;5004614;28;20517;-72
2022/04/11 05:49:23;;;;;;;2.33;1.48;;;;;;;7.65;64.24;96718.44;5006248;28;20056;-58
2022/04/11 05:51:50;;;;;;;2.20;1.80;;;;;;;7.62;62.42;96719.16;5004975;28;20145;-56
2022/04/11 05:54:17;;;;;;;2.10;1.50;;;;;;;7.56;63.50;96709.56;5006704;28;20566;-66
2022/04/11 05:56:43;;;;;;;3.17;1.73;;;;;;;6.82;63.20;96594.09;5009523;28;20065;-58
2022/04/11 05:59:10;;;;;;;2.20;1.52;;;;;;;7.57;60.72;96711.16;5005535;28;20542;-58
2022/04/11 06:01:37;;;;;;;1.60;1.40;;;;;;;7.02;62.06;96656.34;5013614;28;20050;-60
2022/04/11 06:04:04;;;;;;;1.92;1.55;;;;;;;7.44;62.46;96717.16;5019332;28;20050;-57
2022/04/11 06:06:31;;;;;;;2.42;1.55;;;;;;;7.38;63.77;96713.09;5004731;28;20064;-56
2022/04/11 06:08:58;;;;;;;1.45;1.35;;;;;;;6.97;64.49;96656.59;5005067;28;20057;-55
2022/04/11 06:11:25;;;;;;;1.10;1.10;;;;;;;7.16;65.83;96711.75;5004908;28;20449;-56
2022/04/11 06:13:51;;;;;;;1.33;1.13;;;;;;;7.34;65.09;96726.78;5007931;28;20472;-59
2022/04/11 06:16:18;;;;;;;1.45;1.10;;;;;;;7.59;64.31;96730.91;5019822;28;20057;-56
2022/04/11 06:18:45;;;;;;;2.13;1.10;;;;;;;7.16;64.46;96675.94;5014582;28;20050;-66
2022/04/11 06:21:12;;;;;;;1.50;1.25;;;;;;;5.09;63.28;96356.44;5022622;28;20156;-69
2022/04/11 06:23:38;;;;;;;3.15;1.40;;;;;;;7.22;63.91;96690.25;5008932;28;20496;-58
2022/04/11 06:26:05;;;;;;;2.45;1.70;;;;;;;7.26;62.72;96656.13;5022458;28;20057;-60
2022/04/11 06:28:32;;;;;;;5.28;1.95;;;;;;;7.67;62.68;96699.59;5005853;28;20144;-55
2022/04/11 06:30:58;;;;;;;2.15;1.30;;;;;;;7.81;62.23;96720.38;5004877;28;20053;-68
2022/04/11 06:33:25;;;;;;;2.40;1.58;;;;;;;7.73;63.71;96747.75;5016222;28;20045;-69
2022/04/11 06:35:52;;;;;;;2.00;1.40;;;;;;;8.39;61.02;96752.38;5024403;28;20065;-67
2022/04/11 06:38:19;;;;;;;2.22;1.40;;;;;;;7.83;58.56;96707.00;5024953;28;20128;-56
2022/04/11 06:40:45;;;;;;;2.65;1.33;;;;;;;7.90;60.64;96767.84;5019640;28;20068;-56
2022/04/11 06:43:12;;;;;;;2.05;1.58;;;;;;;7.78;58.15;96773.47;5022365;28;20060;-66
2022/04/11 06:45:39;;;;;;;1.60;1.50;;;;;;;7.58;60.45;96778.13;5004898;28;21007;-54
2022/04/11 06:48:05;;;;;;;2.28;1.58;;;;;;;7.40;64.20;96794.22;5004606;28;20057;-65
2022/04/11 06:50:32;;;;;;;1.42;1.30;;;;;;;7.80;61.13;96795.94;5010770;28;20053;-65
2022/04/11 06:52:59;;;;;;;2.15;1.40;;;;;;;7.50;60.57;96766.13;5003018;28;20069;-57
2022/04/11 06:55:25;;;;;;;3.47;1.80;;;;;;;7.25;61.45;96693.09;5003545;28;20555;-58
2022/04/11 06:57:52;;;;;;;5.80;1.75;;;;;;;8.24;59.41;96778.06;5004054;28;20065;-66
2022/04/11 07:00:18;;;;;;;2.35;1.58;;;;;;;8.09;58.71;96756.84;5007418;28;20076;-59
2022/04/11 07:02:45;;;;;;;2.15;1.70;;;;;;;8.01;58.50;96791.75;5013526;28;20046;-67
2022/04/11 07:05:12;;;;;;;2.75;1.45;;;;;;;8.28;57.40;96784.47;5012333;28;20054;-56
2022/04/11 07:07:39;;;;;;;2.78;1.73;;;;;;;8.25;57.78;96801.75;5021448;28;20083;-58
2022/04/11 07:10:07;;;;;;;3.05;2.05;;;;;;;7.54;59.83;96725.66;5011219;28;20057;-58
2022/04/11 07:12:40;;;;;;;2.90;1.45;;;;;;;8.05;60.02;96824.91;5006682;28;20041;-59
2022/04/11 07:15:08;;;;;;;1.65;1.33;;;;;;;8.27;58.11;96810.44;5003948;28;20054;-55
2022/04/11 07:17:35;;;;;;;2.42;1.55;;;;;;;7.97;59.42;96821.19;5023734;28;20061;-56
2022/04/11 07:20:02;;;;;;;1.88;1.67;;;;;;;7.04;57.95;96665.03;5005267;28;20072;-62
2022/04/11 07:22:29;;;;;;;1.50;1.40;;;;;;;7.95;59.10;96831.00;5002764;28;20053;-67
2022/04/11 07:24:56;;;;;;;2.08;1.73;;;;;;;6.93;57.11;96710.78;5002428;28;20050;-64
2022/04/11 07:27:22;;;;;;;3.90;1.75;;;;;;;7.46;58.31;96836.88;5007976;28;20057;-57
2022/04/11 07:29:49;;;;;;;2.92;1.52;;;;;;;7.87;57.45;96829.22;5008932;28;20050;-64
2022/04/11 07:32:16;;;;;;;3.85;1.50;;;;;;;7.39;57.41;96762.31;5010747;28;20468;-54
2022/04/11 07:34:42;;;;;;;3.45;1.63;;;;;;;6.24;56.13;96558.44;5017586;28;20058;-67
2022/04/11 07:37:11;;;;;;;4.97;1.85;;;;;;;7.72;57.49;96828.06;5003571;28;20581;-66
2022/04/11 07:39:38;;;;;;;3.28;1.52;;;;;;;7.85;58.61;96842.56;5014471;28;20111;-68
2022/04/11 07:42:05;;;;;;;4.47;2.60;;;;;;;8.25;58.75;96851.44;5010198;28;20248;-68
2022/04/11 07:44:32;;;;;;;1.95;1.58;;;;;;;8.43;55.90;96852.59;5016974;28;20057;-59
2022/04/11 07:46:58;;;;;;;1.92;1.35;;;;;;;7.96;55.33;96816.84;5021050;28;20053;-57
2022/04/11 07:49:25;;;;;;;2.00;1.85;;;;;;;7.47;56.70;96866.06;5009725;28;20061;-68
2022/04/11 07:51:52;;;;;;;2.60;1.58;;;;;;;7.44;57.65;96872.28;5010709;28;20049;-64
2022/04/11 07:54:18;;;;;;;1.70;1.60;;;;;;;7.60;57.01;96875.81;5003530;28;20501;-57
2022/04/11 07:56:45;;;;;;;3.55;1.77;;;;;;;7.71;57.60;96882.41;5001341;28;20053;-64
2022/04/11 07:59:11;;;;;;;2.38;1.58;;;;;;;7.76;57.46;96883.31;5009610;28;20073;-57
2022/04/11 08:01:38;;;;;;;2.15;1.20;;;;;;;8.01;57.36;96876.44;5023104;28;20492;-57
2022/04/11 08:04:05;;;;;;;2.35;1.48;;;;;;;8.09;56.35;96875.44;5025186;28;20069;-67
2022/04/11 08:06:32;;;;;;;3.47;1.83;;;;;;;8.22;55.42;96885.22;5021321;28;20061;-59
2022/04/11 08:08:58;;;;;;;1.90;1.45;;;;;;;8.37;55.31;96882.44;5023848;28;20050;-63
2022/04/11 08:11:25;;;;;;;1.40;1.30;;;;;;;7.99;56.03;96816.13;5019325;28;20052;-68
2022/04/11 08:13:52;;;;;;;2.53;1.58;;;;;;;8.05;55.40;96836.75;5016813;28;20045;-56
2022/04/11 08:16:19;;;;;;;2.95;1.50;;;;;;;8.52;55.74;96886.34;5015564;28;20046;-58
2022/04/11 08:18:46;;;;;;;3.30;1.83;;;;;;;8.73;55.54;96884.03;5021831;28;20436;-56
2022/04/11 08:21:12;;;;;;;3.40;1.88;;;;;;;8.26;56.39;96864.03;5014849;28;20480;-56
2022/04/11 08:23:39;;;;;;;3.85;1.52;;;;;;;8.09;54.88;96831.31;5007296;28;20064;-55
2022/04/11 08:26:06;;;;;;;2.38;1.60;;;;;;;8.67;55.55;96924.13;5017200;28;20065;-56
2022/04/11 08:28:32;;;;;;;2.97;1.70;;;;;;;8.64;54.88;96916.56;5014635;28;20045;-68
2022/04/11 08:30:59;;;;;;;1.52;1.35;;;;;;;8.85;56.10;96942.69;5022089;28;20452;-56
2022/04/11 08:33:26;;;;;;;2.38;1.90;;;;;;;8.88;53.94;96935.66;5019295;28;20060;-69
2022/04/11 08:35:52;;;;;;;1.75;1.33;;;;;;;8.73;53.90;96929.00;5026455;28;20059;-66
2022/04/11 08:38:20;;;;;;;2.25;1.30;;;;;;;8.68;53.74;96970.72;5020380;28;20127;-58
2022/04/11 08:40:50;;;;;;;2.70;1.70;;;;;;;8.02;54.17;96870.56;5021954;28;20137;-68
2022/04/11 08:43:21;;;;;;;3.00;1.40;;;;;;;8.41;54.45;96893.59;5026884;28;20061;-56
2022/04/11 08:45:50;;;;;;;3.03;1.67;;;;;;;8.94;55.29;96928.66;5020477;28;20448;-63
2022/04/11 08:48:17;;;;;;;2.08;1.63;;;;;;;9.02;54.71;96931.22;5011418;28;20131;-65
2022/04/11 08:50:44;;;;;;;1.42;1.33;;;;;;;8.89;53.56;96942.75;5017234;28;20137;-56
2022/04/11 08:53:11;;;;;;;2.88;1.55;;;;;;;8.83;54.55;96902.78;5023441;28;20062;-66
2022/04/11 08:55:37;;;;;;;1.90;1.50;;;;;;;8.67;52.92;96902.03;5012778;28;20559;-66
2022/04/11 08:58:04;;;;;;;2.70;1.48;;;;;;;9.16;52.91;96931.53;5013495;28;20432;-58
2022/04/11 09:00:31;;;;;;;2.03;1.58;;;;;;;9.13;54.58;96942.50;5020995;28;20058;-56
2022/04/11 09:02:58;;;;;;;1.67;1.35;;;;;;;8.81;55.26;96896.81;5004874;28;20049;-58
2022/04/11 09:05:25;;;;;;;1.50;1.40;;;;;;;8.22;54.52;96843.84;5014929;28;20436;-58
2022/04/11 09:07:53;;;;;;;2.05;1.60;;;;;;;9.00;54.86;97010.09;5011571;28;20263;-59
2022/04/11 09:10:24;;;;;;;2.92;1.38;;;;;;;8.89;54.54;96964.84;5025691;28;20587;-67
2022/04/11 09:13:01;;;;;;;2.03;1.45;;;;;;;9.02;52.55;96958.06;5023884;28;20064;-58
2022/04/11 09:15:36;;;;;;;1.83;1.65;;;;;;;8.75;52.08;96898.28;5016189;28;20064;-66
2022/04/11 09:18:03;;;;;;;1.83;1.20;;;;;;;9.54;54.39;96963.88;5014032;28;20924;-61
2022/04/11 09:20:30;;;;;;;1.50;1.35;;;;;;;9.70;56.16;96961.81;5025444;28;20065;-68
2022/04/11 09:22:58;;;;;;;2.20;1.90;;;;;;;9.74;57.09;96954.38;5024622;28;20050;-58
2022/04/11 09:25:29;;;;;;;5.43;2.80;;;;;;;9.51;57.35;96966.56;5016684;28;20518;-67
2022/04/11 09:28:11;;;;;;;6.75;2.95;;;;;;;9.64;58.55;96979.06;5007124;28;20103;-66
2022/04/11 09:30:43;;;;;;;3.65;1.90;;;;;;;9.55;58.33;96982.03;5006302;28;20050;-57
2022/04/11 09:33:12;;;;;;;3.30;2.30;;;;;;;9.54;58.88;96980.47;5011033;28;20053;-66
2022/04/11 09:35:41;;;;;;;5.20;2.83;;;;;;;9.72;56.88;96987.13;5025060;28;20084;-65
2022/04/11 09:38:16;;;;;;;3.50;2.45;;;;;;;9.82;57.37;96992.06;5025933;28;20065;-66
2022/04/11 09:40:44;;;;;;;3.45;2.47;;;;;;;9.97;58.78;96993.13;5025505;28;20045;-57
2022/04/11 09:43:13;;;;;;;8.32;4.28;;;;;;;10.10;59.16;96991.81;5025481;28;20060;-60
2022/04/11 09:45:43;;;;;;;2.83;1.98;;;;;;;9.19;57.88;96869.19;5025264;28;20054;-66
2022/04/11 09:48:11;;;;;;;3.08;2.50;;;;;;;9.77;57.21;96950.09;5025592;28;20060;-57
2022/04/11 09:50:37;;;;;;;10.77;4.60;;;;;;;10.28;57.41;96996.50;5020426;28;20050;-66
2022/04/11 09:53:11;;;;;;;4.63;3.20;;;;;;;10.22;56.64;97011.81;5006120;28;20062;-67
2022/04/11 09:55:39;;;;;;;9.75;4.68;;;;;;;10.33;57.00;97001.72;5003750;28;20422;-68
2022/04/11 09:58:06;;;;;;;7.95;4.22;;;;;;;10.40;56.07;96989.97;5004324;28;20429;-65
2022/04/11 10:00:35;;;;;;;5.72;3.03;;;;;;;10.16;56.00;96946.06;5004776;28;20517;-64
2022/04/11 10:03:03;;;;;;;1.40;1.30;;;;;;;10.36;55.58;97012.06;5005722;28;20061;-65
2022/04/11 10:05:31;;;;;;;4.53;1.30;;;;;;;10.32;56.19;97016.72;5005228;28;20599;-66
2022/04/11 10:07:58;;;;;;;2.10;1.65;;;;;;;10.41;55.28;97014.53;5007055;28;20067;-57
2022/04/11 10:10:25;;;;;;;2.08;1.50;;;;;;;10.65;54.80;97008.56;5023562;28;20049;-67
2022/04/11 10:12:53;;;;;;;5.57;3.05;;;;;;;10.75;53.46;96967.59;5020953;28;20058;-59
2022/04/11 10:15:21;;;;;;;5.70;3.50;;;;;;;11.18;53.50;97014.13;5020206;28;20124;-68
2022/04/11 10:17:56;;;;;;;2.20;1.73;;;;;;;11.42;50.94;97002.56;5011700;28;20416;-64
2022/04/11 10:20:28;;;;;;;3.40;2.42;;;;;;;11.42;51.15;97002.56;5011260;28;20041;-68
2022/04/11 10:23:00;;;;;;;2.65;1.40;;;;;;;11.29;50.64;96993.69;5018966;28;20626;-56
2022/04/11 10:25:28;;;;;;;2.40;1.67;;;;;;;10.91;50.84;97018.09;5015945;28;20087;-68
2022/04/11 10:28:25;;;;;;;1.63;1.52;;;;;;;11.22;49.70;97026.06;5020232;28;20488;-59
2022/04/11 10:31:34;;;;;;;1.90;1.58;;;;;;;11.04;51.10;97036.91;5017164;28;20046;-67
2022/04/11 10:34:01;;;;;;;2.35;1.67;;;;;;;10.46;54.04;96994.81;5012161;28;20521;-56
2022/04/11 10:36:56;;;;;;;1.42;1.33;;;;;;;9.71;54.34;97007.66;5004789;28;20100;-59
2022/04/11 10:39:24;;;;;;;2.00;1.30;;;;;;;9.36;55.27;96984.81;5003780;28;20072;-56
2022/04/11 10:41:56;;;;;;;1.30;1.20;;;;;;;9.35;58.31;97055.09;5017005;28;20192;-57
2022/04/11 10:44:39;;;;;;;1.88;1.40;;;;;;;9.18;59.96;97061.03;5024502;28;20645;-57
2022/04/11 10:47:09;;;;;;;1.23;1.00;;;;;;;8.46;65.39;97067.16;5002566;28;20057;-68
2022/04/11 10:49:44;;;;;;;1.35;1.25;;;;;;;8.21;68.94;97062.94;5003055;28;20072;-68
2022/04/11 10:52:36;;;;;;;0.93;0.93;;;;;;;8.16;68.19;97057.69;5003851;28;20132;-56
2022/04/11 10:55:15;;;;;;;3.47;1.60;;;;;;;8.19;71.78;97057.00;5003140;28;20399;-67
2022/04/11 10:57:50;;;;;;;2.35;1.40;;;;;;;8.48;71.05;97056.59;5004740;28;20112;-58
2022/04/11 11:00:33;;;;;;;1.70;1.42;;;;;;;8.42;68.65;97052.50;5004155;28;20049;-57
2022/04/11 11:03:06;;;;;;;1.45;1.35;;;;;;;8.91;68.02;97062.81;5004268;28;20449;-58
2022/04/11 11:05:41;;;;;;;3.05;1.95;;;;;;;9.29;66.79;97056.56;5003662;28;20444;-66
2022/04/11 11:08:10;;;;;;;2.10;1.20;;;;;;;9.11;65.06;97066.41;5004286;28;20380;-63
2022/04/11 11:10:59;;;;;;;3.08;1.83;;;;;;;9.32;63.64;97066.88;5003773;28;20452;-56
2022/04/11 11:13:35;;;;;;;2.28;1.88;;;;;;;9.43;60.76;97070.69;5023945;28;20392;-61
2022/04/11 11:16:10;;;;;;;3.25;2.33;;;;;;;9.25;62.23;97077.75;5022891;28;20132;-65
2022/04/11 11:18:51;;;;;;;3.75;2.17;;;;;;;9.39;64.11;97066.25;5010585;28;20714;-57
2022/04/11 11:21:19;;;;;;;3.00;2.50;;;;;;;9.29;66.09;97062.06;5006210;28;20050;-58
2022/04/11 11:24:04;;;;;;;3.67;2.90;;;;;;;9.56;64.85;97061.09;5005277;28;20053;-57
2022/04/11 11:26:52;;;;;;;2.75;2.00;;;;;;;9.15;61.90;97075.59;5017016;28;20140;-64
2022/04/11 11:29:22;;;;;;;3.60;2.10;;;;;;;8.62;64.26;97060.50;5022011;28;20096;-59
2022/04/11 11:31:55;;;;;;;5.75;2.40;;;;;;;9.26;62.96;97087.69;5020413;28;20055;-68
2022/04/11 11:34:24;;;;;;;2.63;2.38;;;;;;;9.58;61.05;97086.38;5021376;28;20103;-65
2022/04/11 11:36:53;;;;;;;5.20;3.08;;;;;;;9.44;63.07;97079.78;5014166;28;20042;-67
2022/04/11 11:39:22;;;;;;;5.07;3.03;;;;;;;8.66;62.40;97019.19;5022426;28;20487;-57
2022/04/11 11:41:51;;;;;;;10.23;2.92;;;;;;;8.86;65.70;97082.41;5010903;28;20057;-57
2022/04/11 11:44:19;;;;;;;3.40;2.55;;;;;;;8.33;62.41;97051.88;5003673;28;20054;-57
2022/04/11 11:46:50;;;;;;;3.30;3.00;;;;;;;8.27;64.99;97075.34;5009248;28;20045;-66